Key West, FL

17:44 EDT le 02 septembre 2015 (GMT -0400)
Key West Naval Air Station | | Change Station
CLOSE
Current Station
Aéroport
Location: Key West NAF,
Altitude: 7 ft
Stations météo à proximité

Alt. 7 ft 24.58 °N, 81.69 °W | Updated 51 minutes ago

Partiellement nuageux
Partiellement nuageux
90 ° F
Paraît 99 ° F
N
4
Vent Variable Vent de Variable

Aujourd'hui
Haut(e) -- | Bas -- ° F
--% Risque de précip.
Hier
Haut(e) -- | Bas -- ° F
Precip. -- pouce
7:07 AM 7:44 PM
Lune gibbeuse décroissante, 77% visible
Pression 29.98 pouce
Visibilité 10.0 Miles terrestres
Nuages Nuages épars 2500 ft
Nuageux 25000 ft
indice de chaleur 99 ° F
Point de rosée 74 ° F
Humidité 59%
Précipitations 0.00 pouce
Profondeur de la couche neigeuse Non disponible.
UV 3 sur 12
Pollen 5.20 sur 12
Qualité de l'air Non disponible.
Flu Activity Non disponible.
METAR KNQX 022053Z VRB03KT 10SM SCT025 BKN250 32/23 A2999 RMK AO2 SLP152 T03220233 58019 $
Pression 29.98 pouce
Visibilité 10.0 Miles terrestres
Nuages Nuages épars 2500 ft
Nuageux 25000 ft
indice de chaleur 99 ° F
Point de rosée 74 ° F
Humidité 59%
Précipitations 0.00 pouce
Profondeur de la couche neigeuse Non disponible.
UV 3 sur 12
Pollen 5.20 sur 12
Qualité de l'air Non disponible.
Flu Activity Non disponible.
METAR KNQX 022053Z VRB03KT 10SM SCT025 BKN250 32/23 A2999 RMK AO2 SLP152 T03220233 58019 $
Nowcast | as of 5:17 PM EDT on September 2, 2015

Through 630 PM...slow-moving showers and thunderstorms over the Mainland Florida everglades will drift southwestward near 6 mph. Some heavy downpours...gusty winds...and a few lightning strikes are likely over portions of northern Florida Bay from Mosquito Point and Crocodile Dragover...to Whipray Channel. Isolated showers will develop and drift mostly westward over The Straits of Florida and extreme southeastern Gulf of Mexico.

×

10-Day Weather Forecast

×

Almanac

Astronomie

Sep. 02, 2015 Lever Coucher
Temps réel
Crépuscule civil
Crépuscule nautique
Crépuscule astronomique
Lune
Durée de lumière visible
Longueur du jour
Tomorrow will be .
, % of the Moon is Illuminated

Extrêmes aujourd'hui

State Highs State Lows

Community

WunderPhotos

Upload Photos

1,851,818 Photos téléchargées !

WunderBlogs® & News

Nearby

Qualité de l'air

  Qualité de l'air Indice de la qualité de l'air Polluant
Not available.

Épaisseur de neige

Station Depth Altitude

Activité sismique

Ville Distance Mag. Time & Date
Minimum magnitude displayed is 2.5.

Températures des eaux côtières

Lieu Température

Stations

Stations météo à proximité

Emplacement de la station Température Refroidissement éolien Point de rosée Humidité Vent Precip. Alt. Mise à jour Type